Jade — 9HVS8 — position and weather

sailwx.info

Track history (hours):
 
Tides and Currents Weather Stations Pressure Air Temp Water Temp Dewpoint Dewpoint Depression Visibility Wind Speed Wind Dir Waves Ship Positions

Jade

Last reported at 2015-Jan-25 10:29 UTC. Time now 2015-Jan-29 18:28 UTC.
Position N 37°36' E 023°56'.

Length 176 m; draft 8 m.

Type: Ship (hazmat cat C). MMSI: 256491000.

Date/timePositionNaut miles runAvg speedWind from/ knotsBaromVisibWave heightAir tempDewpointWater temp
2015-Jan-25 10:29N 37°36' E 023°56'1313.5
2015-Jan-25 09:33N 37°42' E 023°41'1413.9
2015-Jan-25 08:33N 37°55' E 023°36'7 6.1
2015-Jan-25 07:21N 38°01' E 023°32'0 0.0
2015-Jan-25 05:03N 38°01' E 023°32'0 0.0
2015-Jan-25 04:27N 38°01' E 023°32'0 0.0
2015-Jan-25 03:09N 38°01' E 023°32'0 0.1
2015-Jan-25 02:24N 38°01' E 023°32'1 1.2
2015-Jan-25 01:33N 38°02' E 023°30'0 0.1
2015-Jan-25 00:31N 38°02' E 023°31'0 0.0
2015-Jan-24 23:28N 38°02' E 023°31'0 0.0
2015-Jan-24 22:31N 38°02' E 023°31'0 0.0
2015-Jan-24 21:28N 38°02' E 023°31'0 0.0
2015-Jan-24 20:31N 38°02' E 023°31'0 0.0
2015-Jan-24 19:28N 38°02' E 023°31'0 0.0
2015-Jan-24 18:22N 38°02' E 023°31'0 0.0
2015-Jan-24 17:31N 38°02' E 023°31'0 0.0
2015-Jan-24 16:28N 38°02' E 023°31'0 0.0
2015-Jan-24 15:31N 38°02' E 023°31'0 0.0
2015-Jan-24 14:31N 38°02' E 023°31'0 0.0
2015-Jan-24 13:31N 38°02' E 023°31'0 0.0
2015-Jan-24 12:22N 38°02' E 023°31'0 0.0
2015-Jan-24 11:28N 38°02' E 023°31'0 0.0
2015-Jan-24 10:25N 38°02' E 023°31'0 0.0
2015-Jan-24 09:28N 38°02' E 023°31'0 0.0
2015-Jan-24 08:31N 38°02' E 023°31'0 0.0
2015-Jan-24 07:31N 38°02' E 023°31'0 0.0
2015-Jan-24 06:22N 38°02' E 023°31'0 0.0
2015-Jan-24 05:28N 38°02' E 023°31'0 0.0
2015-Jan-24 04:31N 38°02' E 023°31'0 0.0
2015-Jan-24 03:31N 38°02' E 023°31'0 0.0
2015-Jan-24 02:31N 38°02' E 023°31'0 0.0
2015-Jan-24 01:28N 38°02' E 023°31'0 0.0
2015-Jan-24 00:28N 38°02' E 023°31'0 0.0
2015-Jan-23 23:31N 38°02' E 023°31'0 0.0
2015-Jan-23 22:20N 38°02' E 023°31'0 0.0
2015-Jan-23 21:28N 38°02' E 023°31'0 0.0
2015-Jan-23 20:31N 38°02' E 023°31'0 0.0
2015-Jan-23 19:28N 38°02' E 023°31'0 0.0
2015-Jan-23 18:30N 38°02' E 023°31'0 0.0
2015-Jan-23 17:31N 38°02' E 023°31'0 0.0
2015-Jan-23 16:31N 38°02' E 023°31'0 0.0
2015-Jan-23 15:28N 38°02' E 023°31'0 0.0
2015-Jan-23 14:31N 38°02' E 023°31'0 0.0
2015-Jan-23 13:31N 38°02' E 023°31'0 0.0
2015-Jan-23 12:31N 38°02' E 023°31'0 0.0
2015-Jan-23 11:30N 38°02' E 023°31'0 0.0
2015-Jan-23 10:28N 38°02' E 023°31'0 0.0
2015-Jan-23 09:25N 38°02' E 023°31'0 0.0
2015-Jan-23 08:31N 38°02' E 023°31'0 0.0
2015-Jan-23 07:31N 38°02' E 023°31'0 0.0
2015-Jan-23 06:28N 38°02' E 023°31'0 0.0
2015-Jan-23 05:28N 38°02' E 023°31'0 0.0
2015-Jan-23 04:31N 38°02' E 023°31'0 0.0
2015-Jan-23 03:16N 38°02' E 023°31'0 0.0
2015-Jan-23 02:31N 38°02' E 023°31'0 0.0
2015-Jan-23 01:19N 38°02' E 023°31'0 0.0
2015-Jan-23 00:31N 38°02' E 023°31'0 0.0
2015-Jan-22 23:22N 38°02' E 023°31'0 0.0
2015-Jan-22 22:19N 38°02' E 023°31'0 0.0
2015-Jan-22 21:31N 38°02' E 023°31'0 0.0
2015-Jan-22 20:31N 38°02' E 023°31'0 0.0
2015-Jan-22 19:28N 38°02' E 023°31'0 0.0
2015-Jan-22 18:28N 38°02' E 023°31'0 0.0
2015-Jan-22 17:31N 38°02' E 023°31'0 0.0
2015-Jan-22 16:33N 38°02' E 023°31'2 2.3
2015-Jan-22 15:34N 38°00' E 023°33'6 6.0
2015-Jan-22 14:33N 37°55' E 023°36'2 2.1
2015-Jan-22 13:33N 37°53' E 023°38'1110.9
2015-Jan-22 12:33N 37°44' E 023°44'1613.6
2015-Jan-22 11:23N 37°32' E 023°57'5513.7
2015-Jan-22 07:23N 36°52' E 024°44'3214.3
2015-Jan-22 05:09N 36°48' E 025°24'914.5
2015-Jan-22 04:33N 36°44' E 025°33'1514.6
2015-Jan-22 03:33N 36°37' E 025°49'1414.5
2015-Jan-22 02:33N 36°30' E 026°05'1515.0
2015-Jan-22 01:33N 36°27' E 026°23'1714.8
2015-Jan-22 00:25N 36°25' E 026°44'  
Track history (hours):
 
Tides and Currents Weather Stations Pressure Air Temp Water Temp Dewpoint Dewpoint Depression Visibility Wind Speed Wind Dir Waves Ship Positions

Jade

Last reported at 2015-Jan-25 10:29 UTC. Time now 2015-Jan-29 18:28 UTC.
Position N 37°36' E 023°56'.

Length 176 m; draft 8 m.

Type: Ship (hazmat cat C). MMSI: 256491000.

Date/timePositionNaut miles runAvg speedWind from/ knotsBaromVisibWave heightAir tempDewpointWater temp
2015-Jan-25 10:29N 37°36' E 023°56'1313.5
2015-Jan-25 09:33N 37°42' E 023°41'1413.9
2015-Jan-25 08:33N 37°55' E 023°36'7 6.1
2015-Jan-25 07:21N 38°01' E 023°32'0 0.0
2015-Jan-25 05:03N 38°01' E 023°32'0 0.0
2015-Jan-25 04:27N 38°01' E 023°32'0 0.0
2015-Jan-25 03:09N 38°01' E 023°32'0 0.1
2015-Jan-25 02:24N 38°01' E 023°32'1 1.2
2015-Jan-25 01:33N 38°02' E 023°30'0 0.1
2015-Jan-25 00:31N 38°02' E 023°31'0 0.0
2015-Jan-24 23:28N 38°02' E 023°31'0 0.0
2015-Jan-24 22:31N 38°02' E 023°31'0 0.0
2015-Jan-24 21:28N 38°02' E 023°31'0 0.0
2015-Jan-24 20:31N 38°02' E 023°31'0 0.0
2015-Jan-24 19:28N 38°02' E 023°31'0 0.0
2015-Jan-24 18:22N 38°02' E 023°31'0 0.0
2015-Jan-24 17:31N 38°02' E 023°31'0 0.0
2015-Jan-24 16:28N 38°02' E 023°31'0 0.0
2015-Jan-24 15:31N 38°02' E 023°31'0 0.0
2015-Jan-24 14:31N 38°02' E 023°31'0 0.0
2015-Jan-24 13:31N 38°02' E 023°31'0 0.0
2015-Jan-24 12:22N 38°02' E 023°31'0 0.0
2015-Jan-24 11:28N 38°02' E 023°31'0 0.0
2015-Jan-24 10:25N 38°02' E 023°31'0 0.0
2015-Jan-24 09:28N 38°02' E 023°31'0 0.0
2015-Jan-24 08:31N 38°02' E 023°31'0 0.0
2015-Jan-24 07:31N 38°02' E 023°31'0 0.0
2015-Jan-24 06:22N 38°02' E 023°31'0 0.0
2015-Jan-24 05:28N 38°02' E 023°31'0 0.0
2015-Jan-24 04:31N 38°02' E 023°31'0 0.0
2015-Jan-24 03:31N 38°02' E 023°31'0 0.0
2015-Jan-24 02:31N 38°02' E 023°31'0 0.0
2015-Jan-24 01:28N 38°02' E 023°31'0 0.0
2015-Jan-24 00:28N 38°02' E 023°31'0 0.0
2015-Jan-23 23:31N 38°02' E 023°31'0 0.0
2015-Jan-23 22:20N 38°02' E 023°31'0 0.0
2015-Jan-23 21:28N 38°02' E 023°31'0 0.0
2015-Jan-23 20:31N 38°02' E 023°31'0 0.0
2015-Jan-23 19:28N 38°02' E 023°31'0 0.0
2015-Jan-23 18:30N 38°02' E 023°31'0 0.0
2015-Jan-23 17:31N 38°02' E 023°31'0 0.0
2015-Jan-23 16:31N 38°02' E 023°31'0 0.0
2015-Jan-23 15:28N 38°02' E 023°31'0 0.0
2015-Jan-23 14:31N 38°02' E 023°31'0 0.0
2015-Jan-23 13:31N 38°02' E 023°31'0 0.0
2015-Jan-23 12:31N 38°02' E 023°31'0 0.0
2015-Jan-23 11:30N 38°02' E 023°31'0 0.0
2015-Jan-23 10:28N 38°02' E 023°31'0 0.0
2015-Jan-23 09:25N 38°02' E 023°31'0 0.0
2015-Jan-23 08:31N 38°02' E 023°31'0 0.0
2015-Jan-23 07:31N 38°02' E 023°31'0 0.0
2015-Jan-23 06:28N 38°02' E 023°31'0 0.0
2015-Jan-23 05:28N 38°02' E 023°31'0 0.0
2015-Jan-23 04:31N 38°02' E 023°31'0 0.0
2015-Jan-23 03:16N 38°02' E 023°31'0 0.0
2015-Jan-23 02:31N 38°02' E 023°31'0 0.0
2015-Jan-23 01:19N 38°02' E 023°31'0 0.0
2015-Jan-23 00:31N 38°02' E 023°31'0 0.0
2015-Jan-22 23:22N 38°02' E 023°31'0 0.0
2015-Jan-22 22:19N 38°02' E 023°31'0 0.0
2015-Jan-22 21:31N 38°02' E 023°31'0 0.0
2015-Jan-22 20:31N 38°02' E 023°31'0 0.0
2015-Jan-22 19:28N 38°02' E 023°31'0 0.0
2015-Jan-22 18:28N 38°02' E 023°31'0 0.0
2015-Jan-22 17:31N 38°02' E 023°31'0 0.0
2015-Jan-22 16:33N 38°02' E 023°31'2 2.3
2015-Jan-22 15:34N 38°00' E 023°33'6 6.0
2015-Jan-22 14:33N 37°55' E 023°36'2 2.1
2015-Jan-22 13:33N 37°53' E 023°38'1110.9
2015-Jan-22 12:33N 37°44' E 023°44'1613.6
2015-Jan-22 11:23N 37°32' E 023°57'5513.7
2015-Jan-22 07:23N 36°52' E 024°44'3214.3
2015-Jan-22 05:09N 36°48' E 025°24'914.5
2015-Jan-22 04:33N 36°44' E 025°33'1514.6
2015-Jan-22 03:33N 36°37' E 025°49'1414.5
2015-Jan-22 02:33N 36°30' E 026°05'1515.0
2015-Jan-22 01:33N 36°27' E 026°23'1714.8
2015-Jan-22 00:25N 36°25' E 026°44'  

Dump ship's entire track history